createdAt,value
2022-08-04T00:00:14.424Z,61.98
2022-08-04T00:01:14.457Z,62.07
2022-08-04T00:02:14.396Z,62.57
2022-08-04T00:03:14.387Z,62.07
2022-08-04T00:04:14.377Z,62.47
2022-08-04T00:05:14.399Z,62.47
2022-08-04T00:06:14.370Z,62.27
2022-08-04T00:07:14.391Z,62.47
2022-08-04T00:08:14.329Z,62.87
2022-08-04T00:09:14.327Z,62.87
2022-08-04T00:10:14.345Z,62.77
2022-08-04T00:11:15.394Z,62.90
2022-08-04T00:12:14.289Z,63.49
2022-08-04T00:13:14.286Z,63.40
2022-08-04T00:14:14.265Z,62.80
2022-08-04T00:15:14.861Z,62.90
2022-08-04T00:16:14.297Z,63.20
2022-08-04T00:17:14.237Z,62.90
2022-08-04T00:18:14.226Z,62.90
2022-08-04T00:19:14.219Z,63.00
2022-08-04T00:20:14.200Z,62.90
2022-08-04T00:21:14.795Z,62.90
2022-08-04T00:22:14.218Z,63.20
2022-08-04T00:23:14.178Z,63.10
2022-08-04T00:24:14.166Z,63.20
2022-08-04T00:25:14.160Z,63.10
2022-08-04T00:26:14.139Z,63.00
2022-08-04T00:27:14.139Z,63.03
2022-08-04T00:28:14.138Z,63.03
2022-08-04T00:29:14.116Z,63.03
2022-08-04T00:30:14.231Z,63.23
2022-08-04T00:31:14.096Z,62.93
2022-08-04T00:32:14.082Z,63.13
2022-08-04T00:33:15.069Z,63.33
2022-08-04T00:34:14.059Z,63.03
2022-08-04T00:35:14.049Z,63.03
2022-08-04T00:36:14.120Z,63.23
2022-08-04T00:37:14.029Z,63.33
2022-08-04T00:38:14.009Z,63.03
2022-08-04T00:39:14.077Z,63.13
2022-08-04T00:40:14.030Z,63.53
2022-08-04T00:41:13.989Z,63.33
2022-08-04T00:42:13.970Z,63.43
2022-08-04T00:43:13.971Z,63.13
2022-08-04T00:44:13.959Z,62.83
2022-08-04T00:45:14.971Z,62.93
2022-08-04T00:46:16.110Z,63.23
2022-08-04T00:47:13.931Z,63.03
2022-08-04T00:48:13.913Z,63.03
2022-08-04T00:49:13.901Z,63.23
2022-08-04T00:50:13.889Z,63.43
2022-08-04T00:51:13.918Z,63.13
2022-08-04T00:52:33.201Z,63.03
2022-08-04T00:53:14.902Z,63.13
2022-08-04T00:54:13.841Z,63.23
2022-08-04T00:55:13.838Z,63.23
2022-08-04T00:56:13.830Z,63.23
2022-08-04T00:57:33.826Z,63.23
2022-08-04T00:58:14.801Z,63.43
2022-08-04T00:59:13.820Z,63.23
2022-08-04T01:00:13.782Z,63.23
2022-08-04T01:01:13.782Z,63.53
2022-08-04T01:02:13.761Z,63.13
2022-08-04T01:03:13.804Z,63.23
2022-08-04T01:04:13.732Z,63.13
2022-08-04T01:05:13.763Z,63.13
2022-08-04T01:06:13.722Z,63.13
2022-08-04T01:07:13.716Z,63.03
2022-08-04T01:08:13.701Z,63.63
2022-08-04T01:09:21.054Z,63.13
2022-08-04T01:10:17.519Z,62.93
2022-08-04T01:11:13.662Z,62.93
2022-08-04T01:12:13.653Z,63.13
2022-08-04T01:13:15.487Z,63.03
2022-08-04T01:14:13.703Z,62.93
2022-08-04T01:15:13.661Z,62.83
2022-08-04T01:16:13.604Z,63.03
2022-08-04T01:17:13.788Z,63.23
2022-08-04T01:18:13.583Z,62.93
2022-08-04T01:19:13.585Z,63.03
2022-08-04T01:20:13.603Z,63.13
2022-08-04T01:21:20.583Z,63.13
2022-08-04T01:22:13.541Z,63.23
2022-08-04T01:23:13.532Z,63.13
2022-08-04T01:24:13.538Z,63.23
2022-08-04T01:25:13.519Z,63.53
2022-08-04T01:26:42.379Z,63.13
2022-08-04T01:27:14.503Z,63.13
2022-08-04T01:28:13.500Z,63.63
2022-08-04T01:29:15.021Z,63.23
2022-08-04T01:30:13.462Z,63.13
2022-08-04T01:31:13.512Z,63.23
2022-08-04T01:32:13.433Z,63.33
2022-08-04T01:33:13.423Z,63.43
2022-08-04T01:34:13.423Z,63.33
2022-08-04T01:35:21.821Z,63.63
2022-08-04T01:36:14.606Z,63.63
2022-08-04T01:37:13.432Z,63.43
2022-08-04T01:38:21.071Z,63.53
2022-08-04T01:39:14.402Z,63.92
2022-08-04T01:40:13.354Z,63.92
2022-08-04T01:41:13.389Z,63.82
2022-08-04T01:42:18.763Z,63.92
2022-08-04T01:43:14.326Z,63.73
2022-08-04T01:44:13.303Z,63.73
2022-08-04T01:45:13.304Z,64.03
2022-08-04T01:46:13.283Z,63.63
2022-08-04T01:47:13.338Z,64.12
2022-08-04T01:48:13.274Z,63.85
2022-08-04T01:49:13.285Z,63.66
2022-08-04T01:50:13.285Z,63.76
2022-08-04T01:51:13.234Z,63.95
2022-08-04T01:52:13.224Z,63.76
2022-08-04T01:53:13.241Z,63.85
2022-08-04T01:54:13.224Z,63.85
2022-08-04T01:55:13.234Z,63.85
2022-08-04T01:56:13.186Z,63.95
2022-08-04T01:57:38.100Z,63.95
2022-08-04T01:58:14.194Z,64.06
2022-08-04T01:59:13.145Z,64.06
2022-08-04T02:00:13.145Z,63.95
2022-08-04T02:01:13.217Z,64.06
2022-08-04T02:02:13.412Z,63.95
2022-08-04T02:03:13.106Z,64.06
2022-08-04T02:04:19.398Z,64.06
2022-08-04T02:05:14.086Z,64.36
2022-08-04T02:06:13.085Z,64.45
2022-08-04T02:07:13.731Z,64.36
2022-08-04T02:08:13.057Z,64.15
2022-08-04T02:09:13.048Z,64.36
2022-08-04T02:10:13.042Z,64.25
2022-08-04T02:11:13.026Z,64.15
2022-08-04T02:12:16.311Z,64.15
2022-08-04T02:13:13.035Z,64.36
2022-08-04T02:14:12.995Z,64.36
2022-08-04T02:15:12.986Z,64.36
2022-08-04T02:16:12.976Z,64.45
2022-08-04T02:17:13.006Z,64.65
2022-08-04T02:18:12.987Z,64.55
2022-08-04T02:19:14.750Z,64.65
2022-08-04T02:20:12.927Z,64.65
2022-08-04T02:21:12.914Z,64.55
2022-08-04T02:22:12.908Z,64.55
2022-08-04T02:23:12.895Z,64.65
2022-08-04T02:24:12.931Z,64.69
2022-08-04T02:25:12.877Z,64.78
2022-08-04T02:26:20.000Z,64.88
2022-08-04T02:27:13.915Z,64.98
2022-08-04T02:28:12.838Z,64.98
2022-08-04T02:29:12.827Z,64.98
2022-08-04T02:30:12.850Z,65.28
2022-08-04T02:31:12.807Z,65.28
2022-08-04T02:32:12.805Z,65.08
2022-08-04T02:33:12.787Z,65.08
2022-08-04T02:34:12.828Z,65.38
2022-08-04T02:35:12.769Z,65.18
2022-08-04T02:36:12.758Z,65.38
2022-08-04T02:37:12.769Z,65.38
2022-08-04T02:38:12.741Z,65.28
2022-08-04T02:39:12.763Z,65.38
2022-08-04T02:40:12.769Z,65.48
2022-08-04T02:41:12.699Z,65.48
2022-08-04T02:42:12.688Z,65.78
2022-08-04T02:43:12.729Z,65.48
2022-08-04T02:44:12.699Z,65.58
2022-08-04T02:45:12.669Z,65.68
2022-08-04T02:46:17.613Z,65.48
2022-08-04T02:47:13.638Z,65.78
2022-08-04T02:48:29.835Z,65.58
2022-08-04T02:49:13.650Z,65.88
2022-08-04T02:50:12.610Z,65.78
2022-08-04T02:51:12.589Z,65.88
2022-08-04T02:52:12.592Z,65.91
2022-08-04T02:53:12.570Z,66.11
2022-08-04T02:54:12.569Z,65.91
2022-08-04T02:55:12.579Z,66.11
2022-08-04T02:56:12.551Z,66.01
2022-08-04T02:57:12.571Z,66.11
2022-08-04T02:58:12.529Z,66.11
2022-08-04T02:59:12.526Z,66.20
2022-08-04T03:00:12.502Z,66.20
2022-08-04T03:01:12.558Z,66.41
2022-08-04T03:02:12.489Z,66.41
2022-08-04T03:03:12.994Z,66.31
2022-08-04T03:04:12.462Z,66.50
2022-08-04T03:05:13.451Z,66.41
2022-08-04T03:06:12.443Z,66.41
2022-08-04T03:07:14.491Z,66.50
2022-08-04T03:08:12.441Z,66.50
2022-08-04T03:09:12.433Z,66.71
2022-08-04T03:10:12.391Z,66.71
2022-08-04T03:11:12.392Z,66.71
2022-08-04T03:12:12.401Z,66.71
2022-08-04T03:13:12.360Z,66.80
2022-08-04T03:14:12.351Z,67.00
2022-08-04T03:15:12.338Z,67.10
2022-08-04T03:16:12.361Z,66.91
2022-08-04T03:17:12.346Z,66.80
2022-08-04T03:18:12.308Z,66.80
2022-08-04T03:19:12.301Z,66.91
2022-08-04T03:20:12.292Z,67.20
2022-08-04T03:21:12.272Z,67.00
2022-08-04T03:22:12.264Z,67.20
2022-08-04T03:23:13.808Z,67.00
2022-08-04T03:24:13.470Z,67.20
2022-08-04T03:25:12.233Z,67.30
2022-08-04T03:26:12.233Z,67.10
2022-08-04T03:27:12.225Z,67.30
2022-08-04T03:28:12.201Z,67.30
2022-08-04T03:29:12.243Z,67.20
2022-08-04T03:30:12.190Z,67.10
2022-08-04T03:31:12.164Z,67.20
2022-08-04T03:32:12.165Z,67.30
2022-08-04T03:33:12.153Z,67.30
2022-08-04T03:34:12.175Z,67.33
2022-08-04T03:35:13.500Z,67.54
2022-08-04T03:36:12.121Z,67.63
2022-08-04T03:37:12.725Z,67.73
2022-08-04T03:38:12.095Z,67.54
2022-08-04T03:39:12.147Z,67.54
2022-08-04T03:40:12.074Z,67.54
2022-08-04T03:41:12.056Z,67.54
2022-08-04T03:42:15.667Z,67.83
2022-08-04T03:43:57.615Z,67.73
2022-08-04T03:44:13.036Z,67.54
2022-08-04T03:45:22.996Z,67.83
2022-08-04T03:46:13.014Z,67.73
2022-08-04T03:47:11.995Z,67.93
2022-08-04T03:48:11.997Z,67.93
2022-08-04T03:49:12.005Z,67.83
2022-08-04T03:50:12.005Z,67.83
2022-08-04T03:51:35.024Z,68.23
2022-08-04T03:52:12.946Z,68.13
2022-08-04T03:53:11.924Z,68.13
2022-08-04T03:54:11.933Z,68.23
2022-08-04T03:55:11.906Z,68.23
2022-08-04T03:56:11.926Z,68.03
2022-08-04T03:57:11.885Z,68.03
2022-08-04T03:58:11.875Z,68.03
2022-08-04T03:59:11.866Z,68.03
2022-08-04T04:00:11.856Z,68.13
2022-08-04T04:01:11.884Z,68.13
2022-08-04T04:02:12.069Z,68.13
2022-08-04T04:03:11.823Z,68.03
2022-08-04T04:04:12.815Z,68.23
2022-08-04T04:05:11.846Z,68.53
2022-08-04T04:06:12.280Z,68.33
2022-08-04T04:07:11.785Z,68.43
2022-08-04T04:08:18.686Z,68.73
2022-08-04T04:09:16.281Z,68.83
2022-08-04T04:10:12.757Z,68.63
2022-08-04T04:11:11.736Z,68.83
2022-08-04T04:12:11.857Z,68.83
2022-08-04T04:13:11.716Z,68.93
2022-08-04T04:14:11.711Z,68.73
2022-08-04T04:15:11.704Z,68.43
2022-08-04T04:16:11.697Z,69.02
2022-08-04T04:17:11.667Z,68.73
2022-08-04T04:18:11.951Z,68.43
2022-08-04T04:19:11.655Z,68.73
2022-08-04T04:20:11.638Z,68.83
2022-08-04T04:21:11.639Z,68.93
2022-08-04T04:22:11.647Z,68.63
2022-08-04T04:23:11.660Z,68.23
2022-08-04T04:24:11.628Z,68.23
2022-08-04T04:25:11.598Z,68.13
2022-08-04T04:26:11.579Z,68.23
2022-08-04T04:27:11.566Z,68.33
2022-08-04T04:28:44.525Z,68.53
2022-08-04T04:29:12.595Z,68.63
2022-08-04T04:30:11.529Z,68.53
2022-08-04T04:31:11.549Z,68.53
2022-08-04T04:32:11.519Z,68.63
2022-08-04T04:33:11.528Z,68.63
2022-08-04T04:34:11.488Z,68.83
2022-08-04T04:35:11.519Z,68.73
2022-08-04T04:36:11.469Z,68.83
2022-08-04T04:37:11.590Z,68.83
2022-08-04T04:38:11.449Z,68.93
2022-08-04T04:39:11.447Z,68.83
2022-08-04T04:40:11.489Z,69.43
2022-08-04T04:41:11.419Z,69.13
2022-08-04T04:42:11.400Z,69.13
2022-08-04T04:43:11.391Z,69.23
2022-08-04T04:44:11.380Z,69.13
2022-08-04T04:45:11.359Z,69.13
2022-08-04T04:46:11.398Z,69.13
2022-08-04T04:47:11.351Z,69.43
2022-08-04T04:48:11.561Z,69.23
2022-08-04T04:49:11.323Z,69.23
2022-08-04T04:50:11.338Z,69.32
2022-08-04T04:51:11.304Z,69.53
2022-08-04T04:52:11.310Z,69.73
2022-08-04T04:53:11.280Z,69.53
2022-08-04T04:54:11.320Z,69.43
2022-08-04T04:55:11.261Z,69.32
2022-08-04T04:56:11.270Z,69.32
2022-08-04T04:57:11.240Z,69.73
2022-08-04T04:58:11.220Z,69.53
2022-08-04T04:59:11.221Z,69.82
2022-08-04T05:00:11.244Z,69.43
2022-08-04T05:01:11.190Z,69.73
2022-08-04T05:02:11.184Z,69.73
2022-08-04T05:03:11.190Z,69.43
2022-08-04T05:04:11.168Z,69.73
2022-08-04T05:05:11.173Z,69.62
2022-08-04T05:06:11.171Z,69.73
2022-08-04T05:07:11.121Z,69.43
2022-08-04T05:08:43.359Z,68.93
2022-08-04T05:09:12.151Z,69.32
2022-08-04T05:10:11.100Z,69.23
2022-08-04T05:11:11.084Z,69.13
2022-08-04T05:14:32.956Z,69.23
2022-08-04T05:14:34.554Z,69.29
2022-08-04T05:14:36.199Z,69.39
2022-08-04T05:15:12.041Z,69.59
2022-08-04T05:16:11.031Z,69.69
2022-08-04T05:17:11.014Z,69.39
2022-08-04T05:18:11.042Z,69.29
2022-08-04T05:19:11.032Z,69.39
2022-08-04T05:20:11.013Z,69.39
2022-08-04T05:21:10.974Z,69.59
2022-08-04T05:22:14.391Z,69.29
2022-08-04T05:23:10.962Z,69.49
2022-08-04T05:24:10.942Z,69.20
2022-08-04T05:25:10.986Z,69.20
2022-08-04T05:26:10.931Z,68.90
2022-08-04T05:27:10.945Z,69.20
2022-08-04T05:28:10.932Z,69.20
2022-08-04T05:29:10.911Z,69.09
2022-08-04T05:30:10.887Z,69.29
2022-08-04T05:31:12.573Z,68.99
2022-08-04T05:32:10.863Z,68.99
2022-08-04T05:33:10.853Z,68.90
2022-08-04T05:34:10.843Z,69.29
2022-08-04T05:35:10.854Z,69.20
2022-08-04T05:36:18.660Z,69.20
2022-08-04T05:37:11.803Z,68.99
2022-08-04T05:38:10.805Z,69.39
2022-08-04T05:39:10.827Z,69.09
2022-08-04T05:40:10.783Z,69.09
2022-08-04T05:41:10.763Z,69.20
2022-08-04T05:42:16.814Z,68.66
2022-08-04T05:43:10.746Z,68.96
2022-08-04T05:44:10.767Z,68.56
2022-08-04T05:45:10.755Z,68.86
2022-08-04T05:46:10.714Z,69.16
2022-08-04T05:47:10.695Z,68.76
2022-08-04T05:48:10.695Z,68.76
2022-08-04T05:49:10.704Z,68.56
2022-08-04T05:50:11.664Z,68.56
2022-08-04T05:51:10.666Z,68.76
2022-08-04T05:52:10.664Z,68.56
2022-08-04T05:53:10.638Z,68.16
2022-08-04T05:54:10.655Z,68.86
2022-08-04T05:55:10.614Z,68.86
2022-08-04T05:56:10.607Z,68.76
2022-08-04T05:57:10.594Z,68.27
2022-08-04T05:58:10.607Z,68.27
2022-08-04T05:59:10.576Z,68.27
2022-08-04T06:00:39.845Z,68.76
2022-08-04T06:01:11.554Z,68.76
2022-08-04T06:02:10.602Z,68.56
2022-08-04T06:03:10.554Z,68.86
2022-08-04T06:04:11.545Z,68.46
2022-08-04T06:05:10.546Z,68.37
2022-08-04T06:06:10.496Z,68.07
2022-08-04T06:07:10.495Z,68.27
2022-08-04T06:08:12.213Z,68.33
2022-08-04T06:09:10.513Z,68.43
2022-08-04T06:10:10.447Z,68.04
2022-08-04T06:11:10.446Z,68.63
2022-08-04T06:12:10.438Z,68.04
2022-08-04T06:13:10.417Z,67.74
2022-08-04T06:14:11.437Z,67.63
2022-08-04T06:15:10.425Z,67.83
2022-08-04T06:16:17.979Z,67.40
2022-08-04T06:18:32.834Z,67.40
2022-08-04T06:18:33.367Z,67.30
2022-08-04T06:20:02.635Z,67.40
2022-08-04T06:20:19.389Z,67.30
2022-08-04T06:21:15.948Z,67.30
2022-08-04T06:22:11.318Z,66.81
2022-08-04T06:23:10.318Z,67.50
2022-08-04T06:24:10.340Z,66.78
2022-08-04T06:25:10.334Z,66.58
2022-08-04T06:26:10.278Z,66.58
2022-08-04T06:27:10.270Z,66.67
2022-08-04T06:28:10.258Z,66.97
2022-08-04T06:29:10.259Z,66.58
2022-08-04T06:30:10.276Z,66.97
2022-08-04T06:32:27.745Z,66.78
2022-08-04T06:32:28.845Z,67.77
2022-08-04T06:33:11.209Z,66.44
2022-08-04T06:34:10.200Z,66.64
2022-08-04T06:35:10.210Z,66.55
2022-08-04T06:36:10.220Z,65.95
2022-08-04T06:37:10.167Z,65.55
2022-08-04T06:38:10.151Z,65.02
2022-08-04T06:39:10.179Z,65.12
2022-08-04T06:40:29.835Z,65.12
2022-08-04T06:41:11.179Z,64.62
2022-08-04T06:42:22.102Z,64.53
2022-08-04T06:43:11.128Z,64.62
2022-08-04T06:44:10.090Z,64.62
2022-08-04T06:45:10.080Z,64.73
2022-08-04T06:46:10.071Z,64.73
2022-08-04T06:47:10.090Z,64.50
2022-08-04T06:48:10.082Z,64.59
2022-08-04T06:49:10.040Z,64.89
2022-08-04T06:51:24.435Z,64.99
2022-08-04T06:51:32.186Z,63.90
2022-08-04T06:52:11.012Z,63.51
2022-08-04T06:53:10.171Z,63.51
2022-08-04T06:54:10.011Z,63.51
2022-08-04T06:55:10.025Z,63.70
2022-08-04T06:56:09.981Z,63.70
2022-08-04T06:57:09.951Z,63.40
2022-08-04T06:58:09.955Z,62.41
2022-08-04T06:59:09.940Z,62.51
2022-08-04T07:00:09.943Z,62.51
2022-08-04T07:01:09.953Z,62.21
2022-08-04T07:02:10.006Z,62.38
2022-08-04T07:03:09.891Z,61.99
2022-08-04T07:04:09.872Z,61.99
2022-08-04T07:05:09.881Z,61.69
2022-08-04T07:06:14.134Z,61.49
2022-08-04T07:07:10.924Z,60.99
2022-08-04T07:08:09.832Z,61.16
2022-08-04T07:09:09.834Z,60.96
2022-08-04T07:10:09.835Z,60.77
2022-08-04T07:11:09.942Z,60.57
2022-08-04T07:12:09.803Z,60.57
2022-08-04T07:13:09.862Z,60.34
2022-08-04T07:14:09.804Z,60.05
2022-08-04T07:15:09.782Z,60.24
2022-08-04T07:16:09.754Z,59.65
2022-08-04T07:17:09.745Z,59.52
2022-08-04T07:18:09.733Z,59.62
2022-08-04T07:19:11.033Z,60.31
2022-08-04T07:20:09.735Z,59.52
2022-08-04T07:21:09.703Z,59.62
2022-08-04T07:22:24.968Z,59.59
2022-08-04T07:23:10.681Z,58.90
2022-08-04T07:24:09.691Z,58.80
2022-08-04T07:25:12.710Z,59.19
2022-08-04T07:26:13.031Z,58.67
2022-08-04T07:27:09.651Z,58.07
2022-08-04T07:28:09.862Z,56.89
2022-08-04T07:29:09.612Z,56.69
2022-08-04T07:30:09.611Z,56.76
2022-08-04T07:31:09.596Z,57.06
2022-08-04T07:32:09.591Z,57.26
2022-08-04T07:33:09.572Z,56.96
2022-08-04T07:34:21.013Z,56.54
2022-08-04T07:35:10.541Z,55.45
2022-08-04T07:36:11.879Z,55.35
2022-08-04T07:37:09.543Z,55.05
2022-08-04T07:38:09.694Z,55.15
2022-08-04T07:39:09.525Z,55.03
2022-08-04T07:40:10.512Z,55.03
2022-08-04T07:42:10.483Z,54.24
2022-08-04T07:43:09.473Z,54.04
2022-08-04T07:44:09.482Z,54.04
2022-08-04T07:45:10.778Z,53.85
2022-08-04T07:46:09.423Z,54.31
2022-08-04T07:47:09.448Z,54.02
2022-08-04T07:48:09.403Z,53.52
2022-08-04T07:49:09.433Z,53.72
2022-08-04T07:50:09.384Z,53.62
2022-08-04T07:51:09.376Z,54.11
2022-08-04T07:52:09.393Z,53.72
2022-08-04T07:53:54.214Z,54.02
2022-08-04T07:54:10.343Z,54.31
2022-08-04T07:55:09.374Z,53.52
2022-08-04T07:56:09.324Z,53.92
2022-08-04T07:57:09.342Z,53.92
2022-08-04T07:58:10.295Z,54.28
2022-08-04T07:59:09.325Z,54.28
2022-08-04T08:00:09.279Z,54.38
2022-08-04T08:01:09.307Z,53.79
2022-08-04T08:02:09.255Z,53.30
2022-08-04T08:03:09.316Z,53.69
2022-08-04T08:04:09.235Z,53.77
2022-08-04T08:05:09.248Z,53.96
2022-08-04T08:06:17.601Z,53.96
2022-08-04T08:07:10.240Z,54.06
2022-08-04T08:08:09.256Z,53.77
2022-08-04T08:09:13.038Z,53.67
2022-08-04T08:10:10.176Z,53.67
2022-08-04T08:11:09.175Z,53.57
2022-08-04T08:12:36.468Z,53.67
2022-08-04T08:13:10.361Z,53.77
2022-08-04T08:14:09.168Z,54.06
2022-08-04T08:15:10.350Z,54.06
2022-08-04T08:16:09.106Z,53.05
2022-08-04T08:17:09.106Z,53.15
2022-08-04T08:18:09.086Z,53.44
2022-08-04T08:19:09.078Z,54.03
2022-08-04T08:20:09.248Z,53.64
2022-08-04T08:21:09.057Z,53.44
2022-08-04T08:22:09.047Z,52.83
2022-08-04T08:23:09.037Z,52.92
2022-08-04T08:24:12.560Z,53.02
2022-08-04T08:25:09.020Z,52.80
2022-08-04T08:26:09.077Z,52.31
2022-08-04T08:27:08.998Z,52.11
2022-08-04T08:28:08.992Z,51.32
2022-08-04T08:29:09.008Z,51.59
2022-08-04T08:30:08.958Z,51.40
2022-08-04T08:31:09.958Z,51.40
2022-08-04T08:32:09.194Z,51.59
2022-08-04T08:33:08.940Z,51.69
2022-08-04T08:34:08.921Z,51.40
2022-08-04T08:35:08.940Z,51.69
2022-08-04T08:36:08.910Z,52.09
2022-08-04T08:37:08.934Z,51.50
2022-08-04T08:38:08.879Z,51.47
2022-08-04T08:39:08.918Z,51.37
2022-08-04T08:40:08.870Z,51.07
2022-08-04T08:41:08.849Z,50.88
2022-08-04T08:42:08.862Z,50.88
2022-08-04T08:44:04.929Z,50.59
2022-08-04T08:44:09.818Z,50.68
2022-08-04T08:45:09.811Z,50.78
2022-08-04T08:46:08.791Z,51.18
2022-08-04T08:47:08.821Z,51.37
2022-08-04T08:48:08.771Z,50.98
2022-08-04T08:49:08.765Z,51.47
2022-08-04T08:50:08.754Z,51.18
2022-08-04T08:51:08.750Z,50.95
2022-08-04T08:52:08.731Z,50.46
2022-08-04T08:53:08.758Z,50.66
2022-08-04T08:54:08.712Z,50.37
2022-08-04T08:55:08.721Z,50.56
2022-08-04T08:56:08.683Z,50.56
2022-08-04T08:57:08.682Z,50.26
2022-08-04T08:58:08.663Z,50.16
2022-08-04T08:59:15.002Z,50.07
2022-08-04T09:00:09.652Z,49.26
2022-08-04T09:01:08.698Z,49.65
2022-08-04T09:02:08.621Z,48.77
2022-08-04T09:03:08.652Z,48.57
2022-08-04T09:04:08.603Z,48.45
2022-08-04T09:05:08.603Z,47.76
2022-08-04T09:06:08.612Z,47.47
2022-08-04T09:07:08.573Z,47.86
2022-08-04T09:08:08.559Z,47.66
2022-08-04T09:09:08.553Z,47.27
2022-08-04T09:10:08.537Z,47.36
2022-08-04T09:11:08.540Z,47.05
2022-08-04T09:12:08.545Z,47.54
2022-08-04T09:13:08.514Z,47.25
2022-08-04T09:14:08.504Z,47.25
2022-08-04T09:15:08.504Z,47.05
2022-08-04T09:16:08.487Z,47.22
2022-08-04T09:17:08.471Z,47.42
2022-08-04T09:18:08.485Z,46.63
2022-08-04T09:19:08.497Z,46.93
2022-08-04T09:20:08.437Z,47.13
2022-08-04T09:21:08.452Z,46.53
2022-08-04T09:22:12.366Z,46.24
2022-08-04T09:23:08.451Z,46.44
2022-08-04T09:24:35.839Z,46.34
2022-08-04T09:25:09.419Z,46.71
2022-08-04T09:26:08.374Z,46.31
2022-08-04T09:27:08.364Z,45.83
2022-08-04T09:28:09.406Z,46.02
2022-08-04T09:29:08.375Z,46.12
2022-08-04T09:30:08.365Z,45.61
2022-08-04T09:31:08.324Z,45.21
2022-08-04T09:32:08.322Z,44.73
2022-08-04T09:33:08.306Z,44.33
2022-08-04T09:34:08.286Z,44.12
2022-08-04T09:35:14.944Z,43.82
2022-08-04T09:36:09.315Z,43.13
2022-08-04T09:37:08.266Z,43.62
2022-08-04T09:38:08.256Z,43.43
2022-08-04T09:39:08.294Z,43.72
2022-08-04T09:40:08.238Z,43.52
2022-08-04T09:41:45.479Z,43.62
2022-08-04T09:42:10.036Z,43.51
2022-08-04T09:43:08.222Z,43.31
2022-08-04T09:44:50.266Z,43.51
2022-08-04T09:45:13.420Z,44.19
2022-08-04T09:46:09.177Z,44.29
2022-08-04T09:47:09.880Z,44.38
2022-08-04T09:48:08.153Z,44.58
2022-08-04T09:49:08.168Z,44.46
2022-08-04T09:50:08.169Z,44.27
2022-08-04T09:51:08.127Z,43.88
2022-08-04T09:52:08.110Z,43.19
2022-08-04T09:53:08.119Z,42.90
2022-08-04T09:54:08.089Z,43.38
2022-08-04T09:55:08.145Z,43.77
2022-08-04T09:56:08.073Z,43.88
2022-08-04T09:57:08.083Z,43.98
2022-08-04T09:58:08.061Z,44.09
2022-08-04T09:59:08.050Z,43.99
2022-08-04T10:00:08.035Z,44.38
2022-08-04T10:01:08.061Z,43.80
2022-08-04T10:02:08.021Z,43.70
2022-08-04T10:03:08.073Z,43.80
2022-08-04T10:04:07.983Z,43.72
2022-08-04T10:05:08.011Z,43.82
2022-08-04T10:06:07.964Z,43.92
2022-08-04T10:07:07.963Z,44.21
2022-08-04T10:08:16.249Z,43.52
2022-08-04T10:09:08.952Z,44.31
2022-08-04T10:10:07.922Z,44.41
2022-08-04T10:11:07.925Z,44.80
2022-08-04T10:12:07.935Z,45.19
2022-08-04T10:13:07.896Z,45.09
2022-08-04T10:14:07.892Z,44.92
2022-08-04T10:15:07.923Z,45.02
2022-08-04T10:16:07.873Z,45.21
2022-08-04T10:17:07.854Z,45.21
2022-08-04T10:18:07.844Z,44.82
2022-08-04T10:19:08.489Z,45.21
2022-08-04T10:20:07.835Z,45.21
2022-08-04T10:21:13.513Z,43.94
2022-08-04T10:22:28.930Z,44.53
2022-08-04T10:23:11.540Z,44.43
2022-08-04T10:24:09.265Z,44.62
2022-08-04T10:25:38.985Z,45.21
2022-08-04T10:26:08.888Z,45.51
2022-08-04T10:27:07.754Z,45.12
2022-08-04T10:28:07.744Z,45.51
2022-08-04T10:29:07.741Z,45.51
2022-08-04T10:30:07.785Z,45.61
2022-08-04T10:31:07.715Z,45.90
2022-08-04T10:32:07.704Z,45.39
2022-08-04T10:33:07.718Z,45.00
2022-08-04T10:34:07.690Z,45.49
2022-08-04T10:35:07.678Z,45.19
2022-08-04T10:36:07.706Z,45.29
2022-08-04T10:37:07.646Z,45.49
2022-08-04T10:38:07.646Z,45.19
2022-08-04T10:39:07.677Z,45.00
2022-08-04T10:40:07.698Z,44.41
2022-08-04T10:41:07.668Z,44.80
2022-08-04T10:42:07.610Z,44.78
2022-08-04T10:43:07.607Z,43.70
2022-08-04T10:44:08.589Z,43.80
2022-08-04T10:45:07.569Z,44.19
2022-08-04T10:46:07.607Z,42.82
2022-08-04T10:47:07.548Z,43.21
2022-08-04T10:48:07.547Z,42.82
2022-08-04T10:49:07.528Z,43.02
2022-08-04T10:50:07.530Z,42.91
2022-08-04T10:51:07.588Z,43.19
2022-08-04T10:52:07.515Z,42.99
2022-08-04T10:53:08.670Z,42.99
2022-08-04T10:54:07.486Z,43.29
2022-08-04T10:55:07.533Z,43.48
2022-08-04T10:56:09.038Z,43.27
2022-08-04T10:57:07.481Z,42.68
2022-08-04T10:58:07.448Z,42.29
2022-08-04T10:59:07.430Z,42.97
2022-08-04T11:00:07.430Z,43.07
2022-08-04T11:01:07.418Z,42.97
2022-08-04T11:02:07.439Z,42.88
2022-08-04T11:03:07.478Z,43.07
2022-08-04T11:04:07.380Z,42.48
2022-08-04T11:05:07.363Z,42.19
2022-08-04T11:06:07.400Z,42.48
2022-08-04T11:07:07.350Z,42.38
2022-08-04T11:08:11.887Z,42.58
2022-08-04T11:09:13.938Z,43.07
2022-08-04T11:10:08.332Z,43.56
2022-08-04T11:11:07.339Z,43.76
2022-08-04T11:12:19.063Z,44.05
2022-08-04T11:13:07.299Z,43.66
2022-08-04T11:14:08.271Z,44.15
2022-08-04T11:15:07.264Z,44.64
2022-08-04T11:16:07.252Z,43.95
2022-08-04T11:17:07.291Z,44.15
2022-08-04T11:18:07.232Z,43.66
2022-08-04T11:19:08.243Z,43.76
2022-08-04T11:20:33.671Z,43.07
2022-08-04T11:21:08.228Z,43.46
2022-08-04T11:22:07.648Z,43.76
2022-08-04T11:23:07.177Z,43.95
2022-08-04T11:24:07.175Z,44.15
2022-08-04T11:25:07.161Z,44.15
2022-08-04T11:26:07.244Z,44.34
2022-08-04T11:27:07.132Z,44.73
2022-08-04T11:28:07.124Z,44.54
2022-08-04T11:29:07.118Z,43.95
2022-08-04T11:30:07.109Z,43.76
2022-08-04T11:31:07.085Z,43.76
2022-08-04T11:32:07.113Z,44.15
2022-08-04T11:33:07.065Z,44.44
2022-08-04T11:34:07.180Z,44.73
2022-08-04T11:35:07.052Z,44.34
2022-08-04T11:36:07.042Z,44.42
2022-08-04T11:37:14.116Z,43.93
2022-08-04T11:38:08.020Z,44.32
2022-08-04T11:39:07.055Z,44.52
2022-08-04T11:40:07.000Z,44.81
2022-08-04T11:41:06.986Z,44.81
2022-08-04T11:42:06.977Z,44.71
2022-08-04T11:43:06.986Z,44.64
2022-08-04T11:44:12.343Z,44.83
2022-08-04T11:45:07.947Z,45.23
2022-08-04T11:46:06.937Z,45.42
2022-08-04T11:47:06.959Z,45.13
2022-08-04T11:48:06.937Z,45.42
2022-08-04T11:49:06.908Z,45.23
2022-08-04T11:50:06.896Z,45.13
2022-08-04T11:51:07.010Z,45.62
2022-08-04T11:52:06.876Z,45.32
2022-08-04T11:53:06.970Z,44.64
2022-08-04T11:54:06.848Z,44.83
2022-08-04T11:55:06.838Z,44.24
2022-08-04T11:56:09.110Z,44.64
2022-08-04T11:57:08.891Z,44.44
2022-08-04T11:58:06.819Z,44.64
2022-08-04T11:59:06.789Z,44.34
2022-08-04T12:00:07.408Z,44.54
2022-08-04T12:01:06.778Z,44.34
2022-08-04T12:02:06.829Z,44.24
2022-08-04T12:03:06.789Z,44.83
2022-08-04T12:04:06.769Z,44.93
2022-08-04T12:05:06.731Z,45.03
2022-08-04T12:06:06.719Z,45.23
2022-08-04T12:07:30.164Z,45.13
2022-08-04T12:08:07.700Z,45.34
2022-08-04T12:09:06.719Z,45.66
2022-08-04T12:10:06.679Z,46.15
2022-08-04T12:11:06.671Z,45.66
2022-08-04T12:12:06.660Z,45.98
2022-08-04T12:13:06.659Z,46.17
2022-08-04T12:14:06.640Z,46.17
2022-08-04T12:15:06.651Z,46.10
2022-08-04T12:16:06.631Z,46.20
2022-08-04T12:17:06.621Z,46.51
2022-08-04T12:18:07.628Z,46.51
2022-08-04T12:19:06.582Z,46.81
2022-08-04T12:20:38.355Z,47.00
2022-08-04T12:21:07.562Z,47.49
2022-08-04T12:22:06.553Z,47.89
2022-08-04T12:23:06.543Z,48.18
2022-08-04T12:24:06.562Z,48.47
2022-08-04T12:25:06.516Z,48.50
2022-08-04T12:26:06.517Z,48.79
2022-08-04T12:27:06.493Z,49.19
2022-08-04T12:28:06.493Z,48.69
2022-08-04T12:29:09.968Z,48.79
2022-08-04T12:31:01.400Z,49.01
2022-08-04T12:31:11.973Z,49.21
2022-08-04T12:32:06.475Z,49.01
2022-08-04T12:33:06.453Z,49.41
2022-08-04T12:34:06.987Z,49.60
2022-08-04T12:35:06.463Z,49.70
2022-08-04T12:36:11.120Z,49.60
2022-08-04T12:37:07.394Z,49.80
2022-08-04T12:38:06.393Z,49.70
2022-08-04T12:39:06.420Z,50.02
2022-08-04T12:40:27.545Z,50.02
2022-08-04T12:41:07.384Z,50.12
2022-08-04T12:42:06.355Z,50.32
2022-08-04T12:43:06.343Z,50.44
2022-08-04T12:44:06.352Z,51.03
2022-08-04T12:45:06.345Z,51.12
2022-08-04T12:46:06.346Z,50.93
2022-08-04T12:47:27.402Z,51.12
2022-08-04T12:48:07.284Z,51.32
2022-08-04T12:49:06.276Z,51.42
2022-08-04T12:50:06.337Z,51.72
2022-08-04T12:51:06.255Z,51.45
2022-08-04T12:52:09.481Z,51.45
2022-08-04T12:53:06.227Z,51.54